createdAt,value
2023-05-09T00:00:39.084Z,101703.50
2023-05-09T00:03:05.793Z,101700.50
2023-05-09T00:05:32.249Z,101704.16
2023-05-09T00:07:58.711Z,101704.34
2023-05-09T00:10:25.124Z,101706.91
2023-05-09T00:12:52.139Z,101707.91
2023-05-09T00:15:19.080Z,101710.47
2023-05-09T00:17:45.939Z,101696.75
2023-05-09T00:20:12.926Z,101698.34
2023-05-09T00:22:42.687Z,101693.28
2023-05-09T00:25:09.760Z,101694.75
2023-05-09T00:27:36.596Z,101691.38
2023-05-09T00:30:04.995Z,101686.63
2023-05-09T00:32:32.813Z,101686.28
2023-05-09T00:34:59.331Z,101688.88
2023-05-09T00:37:26.714Z,101675.97
2023-05-09T00:39:53.140Z,101672.28
2023-05-09T00:42:19.611Z,101656.50
2023-05-09T00:44:46.468Z,101662.78
2023-05-09T00:47:12.956Z,101661.16
2023-05-09T00:49:39.405Z,101655.91
2023-05-09T00:52:06.273Z,101646.56
2023-05-09T00:54:33.091Z,101663.13
2023-05-09T00:57:00.370Z,101656.75
2023-05-09T00:59:27.643Z,101654.41
2023-05-09T01:01:54.111Z,101658.72
2023-05-09T01:04:20.582Z,101660.00
2023-05-09T01:07:06.206Z,101648.22
2023-05-09T01:09:57.791Z,101646.31
2023-05-09T01:12:42.543Z,101642.81
2023-05-09T01:15:13.801Z,101644.13
2023-05-09T01:18:01.204Z,101639.84
2023-05-09T01:20:37.859Z,101637.44
2023-05-09T01:23:45.210Z,101635.25
2023-05-09T01:26:26.044Z,101637.78
2023-05-09T01:29:19.361Z,101628.56
2023-05-09T01:31:49.107Z,101633.97
2023-05-09T01:34:18.027Z,101619.81
2023-05-09T01:36:46.973Z,101621.91
2023-05-09T01:39:13.960Z,101617.13
2023-05-09T01:41:40.537Z,101614.75
2023-05-09T01:44:10.643Z,101613.97
2023-05-09T01:46:38.109Z,101601.84
2023-05-09T01:49:07.580Z,101606.81
2023-05-09T01:51:36.545Z,101601.25
2023-05-09T01:54:05.156Z,101599.66
2023-05-09T01:56:32.290Z,101599.84
2023-05-09T01:59:00.888Z,101597.44
2023-05-09T02:01:28.263Z,101592.69
2023-05-09T02:03:56.098Z,101593.66
2023-05-09T02:06:24.129Z,101598.75
2023-05-09T02:08:51.159Z,101594.31
2023-05-09T02:11:17.642Z,101586.69
2023-05-09T02:13:44.131Z,101593.38
2023-05-09T02:16:12.125Z,101589.88
2023-05-09T02:18:38.673Z,101587.81
2023-05-09T02:21:06.218Z,101589.56
2023-05-09T02:23:32.643Z,101584.81
2023-05-09T02:25:59.445Z,101579.25
2023-05-09T02:28:27.235Z,101578.47
2023-05-09T02:30:57.071Z,101581.00
2023-05-09T02:33:24.128Z,101573.34
2023-05-09T02:35:51.853Z,101577.53
2023-05-09T02:38:19.186Z,101567.00
2023-05-09T02:40:47.519Z,101570.81
2023-05-09T02:43:15.344Z,101567.31
2023-05-09T02:45:42.084Z,101566.03
2023-05-09T02:48:09.362Z,101568.59
2023-05-09T02:50:38.349Z,101566.41
2023-05-09T02:53:06.109Z,101563.53
2023-05-09T02:55:33.601Z,101560.03
2023-05-09T02:58:12.902Z,101565.75
2023-05-09T03:00:42.523Z,101558.59
2023-05-09T03:03:09.265Z,101561.94
2023-05-09T03:05:35.886Z,101562.91
2023-05-09T03:08:02.354Z,101558.13
2023-05-09T03:10:29.047Z,101566.25
2023-05-09T03:12:55.764Z,101559.44
2023-05-09T03:15:23.035Z,101563.25
2023-05-09T03:17:49.627Z,101558.47
2023-05-09T03:20:16.184Z,101552.94
2023-05-09T03:22:42.606Z,101554.97
2023-05-09T03:25:11.103Z,101555.63
2023-05-09T03:27:38.489Z,101554.06
2023-05-09T03:30:08.343Z,101558.19
2023-05-09T03:32:35.077Z,101552.63
2023-05-09T03:35:01.596Z,101556.28
2023-05-09T03:37:28.078Z,101553.09
2023-05-09T03:39:54.606Z,101549.59
2023-05-09T03:42:22.223Z,101542.25
2023-05-09T03:44:51.044Z,101542.78
2023-05-09T03:47:21.429Z,101551.03
2023-05-09T03:49:48.892Z,101538.00
2023-05-09T03:52:18.429Z,101534.50
2023-05-09T03:54:45.434Z,101537.84
2023-05-09T03:57:11.966Z,101524.31
2023-05-09T03:59:38.493Z,101524.78
2023-05-09T04:02:05.023Z,101520.81
2023-05-09T04:04:31.565Z,101515.88
2023-05-09T04:06:58.658Z,101510.31
2023-05-09T04:09:25.830Z,101508.91
2023-05-09T04:11:53.190Z,101513.84
2023-05-09T04:14:19.773Z,101517.47
2023-05-09T04:16:46.298Z,101517.19
2023-05-09T04:19:12.923Z,101521.31
2023-05-09T04:21:39.374Z,101507.94
2023-05-09T04:24:06.312Z,101509.53
2023-05-09T04:26:40.929Z,101503.50
2023-05-09T04:29:11.229Z,101514.63
2023-05-09T04:31:38.107Z,101511.75
2023-05-09T04:34:06.580Z,101502.84
2023-05-09T04:36:34.848Z,101500.66
2023-05-09T04:39:02.034Z,101494.13
2023-05-09T04:41:29.391Z,101502.25
2023-05-09T04:43:55.888Z,101505.59
2023-05-09T04:46:25.980Z,101503.19
2023-05-09T04:48:53.369Z,101505.59
2023-05-09T04:51:20.407Z,101503.19
2023-05-09T04:53:46.990Z,101517.81
2023-05-09T04:56:15.136Z,101511.44
2023-05-09T04:58:42.296Z,101508.56
2023-05-09T05:01:10.502Z,101508.28
2023-05-09T05:03:38.029Z,101508.28
2023-05-09T05:06:06.503Z,101509.06
2023-05-09T05:08:33.655Z,101501.41
2023-05-09T05:11:00.516Z,101505.72
2023-05-09T05:13:27.944Z,101487.94
2023-05-09T05:15:58.733Z,101493.47
2023-05-09T05:18:25.220Z,101488.53
2023-05-09T05:20:51.779Z,101491.75
2023-05-09T05:23:18.435Z,101489.66
2023-05-09T05:25:45.467Z,101484.25
2023-05-09T05:28:13.324Z,101485.06
2023-05-09T05:30:41.574Z,101483.31
2023-05-09T05:33:08.070Z,101482.50
2023-05-09T05:35:34.633Z,101474.25
2023-05-09T05:38:01.455Z,101468.81
2023-05-09T05:40:28.173Z,101461.81
2023-05-09T05:42:56.047Z,101453.25
2023-05-09T05:45:23.716Z,101456.09
2023-05-09T05:47:54.401Z,101449.44
2023-05-09T05:50:22.614Z,101443.69
2023-05-09T05:52:49.220Z,101429.69
2023-05-09T05:55:18.004Z,101433.34
2023-05-09T05:57:44.759Z,101443.03
2023-05-09T06:00:15.145Z,101439.69
2023-05-09T06:02:49.387Z,101444.47
2023-05-09T06:05:30.914Z,101438.28
2023-05-09T06:07:57.560Z,101438.28
2023-05-09T06:10:24.017Z,101434.75
2023-05-09T06:12:50.521Z,101434.44
2023-05-09T06:15:17.838Z,101433.47
2023-05-09T06:17:46.973Z,101432.19
2023-05-09T06:20:13.408Z,101427.09
2023-05-09T06:22:39.852Z,101425.34
2023-05-09T06:25:08.665Z,101419.44
2023-05-09T06:27:36.689Z,101412.91
2023-05-09T06:30:14.164Z,101415.63
2023-05-09T06:32:49.690Z,101423.25
2023-05-09T06:35:16.325Z,101401.59
2023-05-09T06:37:43.309Z,101412.41
2023-05-09T06:40:09.995Z,101413.53
2023-05-09T06:42:36.440Z,101417.47
2023-05-09T06:45:03.275Z,101406.34
2023-05-09T06:47:29.766Z,101413.97
2023-05-09T06:49:56.201Z,101405.03
2023-05-09T06:52:22.728Z,101411.53
2023-05-09T06:54:49.130Z,101413.91
2023-05-09T06:57:15.867Z,101412.94
2023-05-09T06:59:42.304Z,101403.84
2023-05-09T07:02:08.726Z,101419.13
2023-05-09T07:04:35.247Z,101411.63
2023-05-09T07:07:01.778Z,101410.66
2023-05-09T07:09:28.739Z,101400.78
2023-05-09T07:11:55.573Z,101400.44
2023-05-09T07:14:22.316Z,101400.28
2023-05-09T07:16:48.780Z,101391.97
2023-05-09T07:19:15.358Z,101380.31
2023-05-09T07:21:41.774Z,101365.97
2023-05-09T07:24:08.269Z,101370.56
2023-05-09T07:26:37.731Z,101370.69
2023-05-09T07:29:04.191Z,101373.84
2023-05-09T07:31:31.002Z,101369.50
2023-05-09T07:33:57.594Z,101373.78
2023-05-09T07:36:24.013Z,101364.19
2023-05-09T07:38:52.648Z,101369.53
2023-05-09T07:41:19.424Z,101361.25
2023-05-09T07:43:45.894Z,101363.16
2023-05-09T07:46:12.459Z,101358.28
2023-05-09T07:48:39.152Z,101358.91
2023-05-09T07:51:05.702Z,101366.03
2023-05-09T07:53:32.166Z,101359.31
2023-05-09T07:55:58.959Z,101349.25
2023-05-09T07:58:25.666Z,101345.69
2023-05-09T08:00:52.063Z,101337.97
2023-05-09T08:03:20.737Z,101336.16
2023-05-09T08:05:47.296Z,101337.56
2023-05-09T08:08:13.737Z,101330.84
2023-05-09T08:10:40.167Z,101325.69
2023-05-09T08:13:06.620Z,101318.66
2023-05-09T08:15:33.153Z,101315.88
2023-05-09T08:17:59.732Z,101305.47
2023-05-09T08:20:26.262Z,101303.50
2023-05-09T08:22:52.693Z,101298.34
2023-05-09T08:25:20.722Z,101303.88
2023-05-09T08:27:47.203Z,101289.03
2023-05-09T08:30:14.213Z,101295.16
2023-05-09T08:32:41.241Z,101280.31
2023-05-09T08:35:08.973Z,101281.72
2023-05-09T08:37:38.530Z,101285.94
2023-05-09T08:40:08.571Z,101279.50
2023-05-09T08:42:37.486Z,101277.50
2023-05-09T08:45:11.366Z,101264.97
2023-05-09T08:47:38.718Z,101272.91
2023-05-09T08:50:06.395Z,101279.50
2023-05-09T08:52:33.877Z,101266.50
2023-05-09T08:55:07.296Z,101266.59
2023-05-09T08:57:37.134Z,101256.16
2023-05-09T09:00:07.612Z,101254.16
2023-05-09T09:02:35.447Z,101255.53
2023-05-09T09:05:02.917Z,101247.75
2023-05-09T09:07:31.248Z,101238.91
2023-05-09T09:09:58.722Z,101245.50
2023-05-09T09:12:26.120Z,101247.66
2023-05-09T09:14:55.115Z,101242.50
2023-05-09T09:17:28.031Z,101246.22
2023-05-09T09:19:58.992Z,101241.03
2023-05-09T09:22:33.844Z,101236.63
2023-05-09T09:25:01.635Z,101246.13
2023-05-09T09:27:28.356Z,101237.25
2023-05-09T09:29:54.869Z,101226.59
2023-05-09T09:32:32.927Z,101230.84
2023-05-09T09:35:10.730Z,101220.41
2023-05-09T09:37:43.544Z,101226.22
2023-05-09T09:40:11.699Z,101218.44
2023-05-09T09:42:43.543Z,101213.22
2023-05-09T09:45:15.275Z,101209.63
2023-05-09T09:47:44.531Z,101217.50
2023-05-09T09:50:15.906Z,101209.41
2023-05-09T09:52:50.419Z,101203.94
2023-05-09T09:55:21.190Z,101201.88
2023-05-09T09:57:48.311Z,101193.53
2023-05-09T10:00:17.570Z,101194.34
2023-05-09T10:02:53.404Z,101188.34
2023-05-09T10:05:28.040Z,101199.13
2023-05-09T10:08:03.024Z,101190.75
2023-05-09T10:10:31.670Z,101196.56
2023-05-09T10:13:00.198Z,101199.97
2023-05-09T10:15:33.475Z,101186.13
2023-05-09T10:18:08.035Z,101186.66
2023-05-09T10:20:35.772Z,101185.41
2023-05-09T10:23:03.894Z,101187.53
2023-05-09T10:25:46.695Z,101175.75
2023-05-09T10:28:17.739Z,101177.84
2023-05-09T10:30:56.635Z,101159.28
2023-05-09T10:33:30.879Z,101146.97
2023-05-09T10:35:58.570Z,101148.00
2023-05-09T10:38:25.419Z,101152.50
2023-05-09T10:40:54.239Z,101135.25
2023-05-09T10:43:21.736Z,101133.69
2023-05-09T10:45:48.578Z,101126.09
2023-05-09T10:48:15.604Z,101140.25
2023-05-09T10:50:43.526Z,101130.31
2023-05-09T10:53:21.609Z,101131.63
2023-05-09T10:55:59.968Z,101125.09
2023-05-09T10:58:33.659Z,101109.63
2023-05-09T11:01:01.551Z,101116.19
2023-05-09T11:03:49.363Z,101102.81
2023-05-09T11:06:53.995Z,101100.72
2023-05-09T11:09:39.096Z,101088.94
2023-05-09T11:12:05.748Z,101086.03
2023-05-09T11:14:46.790Z,101086.28
2023-05-09T11:17:15.620Z,101082.91
2023-05-09T11:19:44.968Z,101061.13
2023-05-09T11:22:14.685Z,101073.72
2023-05-09T11:24:52.223Z,101065.31
2023-05-09T11:27:26.922Z,101055.59
2023-05-09T11:29:55.838Z,101053.75
2023-05-09T11:32:28.021Z,101054.28
2023-05-09T11:35:09.478Z,101052.16
2023-05-09T11:37:52.865Z,101055.34
2023-05-09T11:40:20.938Z,101037.50
2023-05-09T11:42:50.459Z,101034.84
2023-05-09T11:45:17.842Z,101033.03
2023-05-09T11:47:46.101Z,101032.50
2023-05-09T11:50:13.912Z,101025.91
2023-05-09T11:52:40.612Z,101019.06
2023-05-09T11:55:12.694Z,101016.72
2023-05-09T11:57:50.876Z,101013.53
2023-05-09T12:00:25.695Z,101004.59
2023-05-09T12:02:53.656Z,100997.53
2023-05-09T12:05:22.712Z,101004.59
2023-05-09T12:07:49.580Z,100981.19
2023-05-09T12:10:19.883Z,100990.63
2023-05-09T12:12:49.102Z,100986.69
2023-05-09T12:15:16.885Z,100976.94
2023-05-09T12:17:45.107Z,100964.31
2023-05-09T12:20:12.694Z,100967.47
2023-05-09T12:22:43.044Z,100962.16
2023-05-09T12:25:10.696Z,100960.03
2023-05-09T12:27:38.699Z,100951.13
2023-05-09T12:30:09.815Z,100957.38
2023-05-09T12:32:37.770Z,100951.59
2023-05-09T12:35:04.756Z,100960.75
2023-05-09T12:37:34.510Z,100964.69
2023-05-09T12:40:06.248Z,100948.38
2023-05-09T12:42:34.380Z,100962.53
2023-05-09T12:45:04.693Z,100945.69
2023-05-09T12:47:32.055Z,100957.75
2023-05-09T12:49:59.590Z,100944.06
2023-05-09T12:52:33.146Z,100942.47
2023-05-09T12:55:05.986Z,100941.19
2023-05-09T12:57:32.399Z,100944.53
2023-05-09T13:00:00.041Z,100942.69
2023-05-09T13:02:30.433Z,100944.75
2023-05-09T13:05:13.183Z,100944.22
2023-05-09T13:07:47.149Z,100943.38
2023-05-09T13:10:15.157Z,100939.19
2023-05-09T13:12:45.148Z,100933.91
2023-05-09T13:15:12.063Z,100932.78
2023-05-09T13:17:38.718Z,100920.13
2023-05-09T13:20:06.054Z,100929.84
2023-05-09T13:22:33.006Z,100926.66
2023-05-09T13:24:59.719Z,100919.56
2023-05-09T13:27:27.806Z,100924.28
2023-05-09T13:29:54.274Z,100906.59
2023-05-09T13:32:20.931Z,100902.63
2023-05-09T13:34:47.353Z,100910.75
2023-05-09T13:37:13.796Z,100912.59
2023-05-09T13:39:40.333Z,100902.81
2023-05-09T13:42:07.088Z,100907.25
2023-05-09T13:44:33.512Z,100896.94
2023-05-09T13:47:00.283Z,100888.53
2023-05-09T13:49:27.787Z,100896.63
2023-05-09T13:51:55.076Z,100881.63
2023-05-09T13:54:22.952Z,100885.78
2023-05-09T13:56:51.152Z,100900.53
2023-05-09T13:59:17.644Z,100871.25
2023-05-09T14:01:44.410Z,100877.81
2023-05-09T14:04:11.106Z,100874.63
2023-05-09T14:06:37.617Z,100867.50
2023-05-09T14:09:04.355Z,100866.66
2023-05-09T14:11:31.052Z,100868.22
2023-05-09T14:13:57.596Z,100870.59
2023-05-09T14:16:24.054Z,100870.81
2023-05-09T14:18:50.605Z,100864.50
2023-05-09T14:21:17.023Z,100853.69
2023-05-09T14:23:43.653Z,100860.75
2023-05-09T14:26:10.155Z,100857.31
2023-05-09T14:28:38.129Z,100843.06
2023-05-09T14:31:04.682Z,100837.25
2023-05-09T14:33:32.920Z,100834.31
2023-05-09T14:36:01.139Z,100839.31
2023-05-09T14:38:27.602Z,100832.44
2023-05-09T14:40:54.029Z,100837.09
2023-05-09T14:43:22.184Z,100827.09
2023-05-09T14:45:48.577Z,100816.84
2023-05-09T14:48:16.178Z,100814.91
2023-05-09T14:50:43.056Z,100815.34
2023-05-09T14:53:11.029Z,100816.91
2023-05-09T14:55:37.523Z,100813.69
2023-05-09T14:58:03.963Z,100806.03
2023-05-09T15:00:30.444Z,100792.31
2023-05-09T15:02:57.483Z,100791.53
2023-05-09T15:05:24.111Z,100791.78
2023-05-09T15:07:50.647Z,100795.13
2023-05-09T15:10:17.437Z,100783.22
2023-05-09T15:12:44.249Z,100774.53
2023-05-09T15:15:15.254Z,100781.31
2023-05-09T15:17:43.136Z,100775.53
2023-05-09T15:20:10.764Z,100777.31
2023-05-09T15:22:37.552Z,100774.63
2023-05-09T15:25:06.218Z,100773.31
2023-05-09T15:27:32.917Z,100760.41
2023-05-09T15:29:59.397Z,100772.22
2023-05-09T15:32:26.056Z,100766.63
2023-05-09T15:34:52.568Z,100762.97
2023-05-09T15:37:19.034Z,100759.75
2023-05-09T15:39:46.243Z,100766.34
2023-05-09T15:42:13.342Z,100764.22
2023-05-09T15:44:40.728Z,100748.38
2023-05-09T15:47:07.762Z,100760.22
2023-05-09T15:49:34.482Z,100747.03
2023-05-09T15:52:03.832Z,100746.16
2023-05-09T15:54:31.748Z,100736.13
2023-05-09T15:56:59.253Z,100748.19
2023-05-09T15:59:26.383Z,100734.47
2023-05-09T16:01:53.250Z,100734.69
2023-05-09T16:04:19.965Z,100730.13
2023-05-09T16:06:47.235Z,100717.44
2023-05-09T16:09:13.741Z,100716.13
2023-05-09T16:11:40.926Z,100722.34
2023-05-09T16:14:11.959Z,100717.00
2023-05-09T16:16:39.432Z,100704.06
2023-05-09T16:19:06.742Z,100705.84
2023-05-09T16:21:33.420Z,100707.84
2023-05-09T16:24:02.915Z,100712.53
2023-05-09T16:26:29.433Z,100706.41
2023-05-09T16:28:55.903Z,100697.16
2023-05-09T16:31:26.336Z,100701.81
2023-05-09T16:33:54.041Z,100697.81
2023-05-09T16:36:21.248Z,100698.47
2023-05-09T16:38:47.828Z,100692.88
2023-05-09T16:41:14.475Z,100689.09
2023-05-09T16:43:41.441Z,100694.22
2023-05-09T16:46:08.038Z,100690.41
2023-05-09T16:48:34.545Z,100685.06
2023-05-09T16:51:00.949Z,100677.31
2023-05-09T16:53:28.254Z,100680.13
2023-05-09T16:55:54.989Z,100677.44
2023-05-09T16:58:21.465Z,100672.28
2023-05-09T17:00:48.188Z,100667.50
2023-05-09T17:03:14.774Z,100671.19
2023-05-09T17:05:41.178Z,100665.03
2023-05-09T17:08:07.781Z,100669.13
2023-05-09T17:10:37.058Z,100664.09
2023-05-09T17:13:08.422Z,100670.16
2023-05-09T17:15:34.916Z,100668.00
2023-05-09T17:18:01.950Z,100671.13
2023-05-09T17:20:28.886Z,100655.84
2023-05-09T17:22:56.343Z,100669.34
2023-05-09T17:25:23.352Z,100666.44
2023-05-09T17:27:49.783Z,100662.22
2023-05-09T17:30:16.615Z,100653.50
2023-05-09T17:32:43.364Z,100650.38
2023-05-09T17:35:09.987Z,100656.75
2023-05-09T17:37:36.441Z,100655.19
2023-05-09T17:40:05.048Z,100643.16
2023-05-09T17:42:31.560Z,100656.31
2023-05-09T17:44:57.979Z,100650.09
2023-05-09T17:47:24.434Z,100645.59
2023-05-09T17:49:52.013Z,100645.94
2023-05-09T17:52:18.538Z,100652.31
2023-05-09T17:54:45.216Z,100651.09
2023-05-09T17:57:11.613Z,100659.59
2023-05-09T17:59:40.513Z,100651.00
2023-05-09T18:02:07.913Z,100642.06
2023-05-09T18:04:34.668Z,100651.13
2023-05-09T18:07:01.306Z,100651.25
2023-05-09T18:09:28.117Z,100657.81
2023-05-09T18:11:54.604Z,100652.38
2023-05-09T18:14:21.117Z,100645.13
2023-05-09T18:16:47.549Z,100658.31
2023-05-09T18:19:14.017Z,100649.16
2023-05-09T18:21:40.461Z,100646.59
2023-05-09T18:24:09.355Z,100649.03
2023-05-09T18:26:35.901Z,100656.78
2023-05-09T18:29:02.361Z,100650.50
2023-05-09T18:31:29.415Z,100651.19
2023-05-09T18:33:56.302Z,100640.72
2023-05-09T18:36:23.102Z,100634.69
2023-05-09T18:38:49.556Z,100645.28
2023-05-09T18:41:16.921Z,100629.00
2023-05-09T18:43:46.420Z,100635.16
2023-05-09T18:46:21.036Z,100636.03
2023-05-09T18:48:51.947Z,100628.44
2023-05-09T18:51:19.714Z,100626.44
2023-05-09T18:53:47.334Z,100623.06
2023-05-09T18:56:14.013Z,100622.84
2023-05-09T18:58:40.582Z,100622.41
2023-05-09T19:01:11.183Z,100626.19
2023-05-09T19:03:43.651Z,100614.13
2023-05-09T19:06:12.805Z,100626.63
2023-05-09T19:08:40.532Z,100624.84
2023-05-09T19:11:07.212Z,100629.09
2023-05-09T19:13:37.080Z,100634.41
2023-05-09T19:16:08.172Z,100625.03
2023-05-09T19:18:34.742Z,100629.84
2023-05-09T19:21:01.584Z,100636.19
2023-05-09T19:23:28.101Z,100634.97
2023-05-09T19:25:55.420Z,100626.34
2023-05-09T19:28:23.026Z,100622.47
2023-05-09T19:30:50.157Z,100631.47
2023-05-09T19:33:16.721Z,100631.03
2023-05-09T19:35:43.793Z,100630.53
2023-05-09T19:38:11.823Z,100624.09
2023-05-09T19:40:39.079Z,100622.53
2023-05-09T19:43:05.693Z,100630.50
2023-05-09T19:45:32.156Z,100630.25
2023-05-09T19:47:59.445Z,100628.25
2023-05-09T19:50:26.385Z,100628.78
2023-05-09T19:52:52.898Z,100624.66
2023-05-09T19:55:19.827Z,100622.63
2023-05-09T19:57:46.987Z,100631.63
2023-05-09T20:00:14.238Z,100626.94
2023-05-09T20:02:41.103Z,100625.72
2023-05-09T20:05:08.120Z,100613.66
2023-05-09T20:07:34.597Z,100623.97
2023-05-09T20:10:01.088Z,100625.09
2023-05-09T20:12:30.198Z,100614.16
2023-05-09T20:14:57.278Z,100610.22
2023-05-09T20:17:23.872Z,100617.66
2023-05-09T20:19:50.700Z,100601.94
2023-05-09T20:22:17.209Z,100612.75
2023-05-09T20:24:43.645Z,100610.16
2023-05-09T20:27:10.090Z,100613.13
2023-05-09T20:29:36.560Z,100614.47
2023-05-09T20:32:03.298Z,100606.63
2023-05-09T20:34:29.754Z,100599.63
2023-05-09T20:36:56.240Z,100600.72
2023-05-09T20:39:23.406Z,100601.81
2023-05-09T20:41:51.405Z,100601.28
2023-05-09T20:44:18.314Z,100590.59
2023-05-09T20:46:45.443Z,100597.69
2023-05-09T20:49:12.404Z,100592.22
2023-05-09T20:51:38.977Z,100593.06
2023-05-09T20:54:05.727Z,100593.63
2023-05-09T20:56:33.564Z,100585.81
2023-05-09T20:59:00.991Z,100591.09
2023-05-09T21:01:27.519Z,100587.97
2023-05-09T21:03:54.233Z,100580.16
2023-05-09T21:06:21.060Z,100572.34
2023-05-09T21:08:47.471Z,100581.03
2023-05-09T21:11:13.932Z,100576.06
2023-05-09T21:13:40.428Z,100569.81
2023-05-09T21:16:07.077Z,100575.84
2023-05-09T21:18:33.479Z,100567.78
2023-05-09T21:21:07.233Z,100569.88
2023-05-09T21:23:34.477Z,100565.72
2023-05-09T21:26:01.049Z,100558.19
2023-05-09T21:28:27.641Z,100552.13
2023-05-09T21:30:54.349Z,100561.88
2023-05-09T21:33:21.169Z,100541.97
2023-05-09T21:35:47.705Z,100551.19
2023-05-09T21:38:14.270Z,100546.47
2023-05-09T21:40:41.116Z,100541.78
2023-05-09T21:43:07.537Z,100539.22
2023-05-09T21:45:33.944Z,100545.75
2023-05-09T21:48:00.751Z,100543.94
2023-05-09T21:50:27.288Z,100536.94
2023-05-09T21:52:56.083Z,100533.03
2023-05-09T21:55:22.825Z,100530.97
2023-05-09T21:57:49.326Z,100530.72
2023-05-09T22:00:16.872Z,100528.91
2023-05-09T22:02:43.840Z,100522.88
2023-05-09T22:05:11.469Z,100529.19
2023-05-09T22:07:37.969Z,100524.50
2023-05-09T22:10:04.904Z,100520.59
2023-05-09T22:12:31.632Z,100521.97
2023-05-09T22:14:58.070Z,100522.75
2023-05-09T22:17:24.670Z,100526.72
2023-05-09T22:19:51.296Z,100517.03
2023-05-09T22:22:17.888Z,100512.34
2023-05-09T22:24:44.360Z,100521.53
2023-05-09T22:27:11.317Z,100506.38
2023-05-09T22:29:37.951Z,100511.91
2023-05-09T22:32:07.512Z,100508.75
2023-05-09T22:34:34.944Z,100503.06
2023-05-09T22:37:01.350Z,100507.50
2023-05-09T22:39:27.906Z,100505.94
2023-05-09T22:41:54.287Z,100503.38
2023-05-09T22:44:20.940Z,100501.56
2023-05-09T22:46:47.325Z,100503.41
2023-05-09T22:49:13.750Z,100501.03
2023-05-09T22:51:40.177Z,100497.69
2023-05-09T22:54:06.654Z,100494.81
2023-05-09T22:56:33.170Z,100486.97
2023-05-09T22:58:59.673Z,100482.25
2023-05-09T23:01:27.301Z,100487.25
2023-05-09T23:03:53.941Z,100484.13
2023-05-09T23:06:20.334Z,100485.97
2023-05-09T23:08:46.801Z,100478.41
2023-05-09T23:11:13.234Z,100481.81
2023-05-09T23:13:39.647Z,100482.34
2023-05-09T23:16:06.452Z,100477.66
2023-05-09T23:18:32.902Z,100474.78
2023-05-09T23:20:59.317Z,100468.53
2023-05-09T23:23:25.818Z,100475.59
2023-05-09T23:25:52.243Z,100462.78
2023-05-09T23:28:20.343Z,100468.56
2023-05-09T23:30:46.869Z,100454.69
2023-05-09T23:33:13.314Z,100454.97
2023-05-09T23:35:39.762Z,100452.63
2023-05-09T23:38:06.337Z,100451.31
2023-05-09T23:40:32.893Z,100455.78
2023-05-09T23:42:59.443Z,100441.41
2023-05-09T23:45:26.042Z,100447.97
2023-05-09T23:47:52.592Z,100445.91
2023-05-09T23:50:19.261Z,100443.81
2023-05-09T23:52:49.118Z,100446.44
2023-05-09T23:55:15.623Z,100446.16
2023-05-09T23:57:42.176Z,100441.75
